FWV10 LOWI-LIMJ
Flight info
| Callsign | FWV10 |
|---|---|
| Flight time | 0h 41m |
| Altitude | 19000 |
| Route | BRENO M726 NAXAV M984 LUSIL |
| Aircraft | A320/M-SDE3FGHIRWY/LB1 |
Departure
| Time | 2026-05-06 09:19 |
|---|---|
| Airport | Innsbruck Airport (LOWI) |
Arrival
| Time | 2026-05-06 10:01 |
|---|---|
| Airport | Genoa Cristoforo Colombo Airport (LIMJ) |
| Time | Latitude | Longitude | Altitude | Speed | Heading |
|---|---|---|---|---|---|
| 2026-05-06 09:16 | 47.25859 | 11.34867 | 1900 ft | 0 kts | 81° |
| 2026-05-06 09:16 | 47.25861 | 11.34891 | 1899 ft | 8 kts | 81° |
| 2026-05-06 09:16 | 47.25875 | 11.35020 | 1904 ft | 14 kts | 81° |
| 2026-05-06 09:17 | 47.25889 | 11.35152 | 1901 ft | 12 kts | 81° |
| 2026-05-06 09:17 | 47.25909 | 11.35275 | 1891 ft | 11 kts | 50° |
| 2026-05-06 09:17 | 47.25983 | 11.35275 | 1899 ft | 10 kts | 351° |
| 2026-05-06 09:17 | 47.26049 | 11.35260 | 1902 ft | 10 kts | 352° |
| 2026-05-06 09:18 | 47.26115 | 11.35284 | 1896 ft | 11 kts | 58° |
| 2026-05-06 09:18 | 47.26129 | 11.35420 | 1904 ft | 15 kts | 82° |
| 2026-05-06 09:18 | 47.26129 | 11.35581 | 1894 ft | 16 kts | 123° |
| 2026-05-06 09:18 | 47.26134 | 11.35711 | 1890 ft | 10 kts | 18° |
| 2026-05-06 09:19 | 47.26151 | 11.35657 | 1904 ft | 15 kts | 274° |
| 2026-05-06 09:19 | 47.26096 | 11.35135 | 1900 ft | 92 kts | 259° |
| 2026-05-06 09:19 | 47.25959 | 11.33866 | 1966 ft | 150 kts | 259° |
| 2026-05-06 09:19 | 47.25789 | 11.32332 | 2718 ft | 153 kts | 256° |
| 2026-05-06 09:20 | 47.25621 | 11.30783 | 3557 ft | 154 kts | 258° |
| 2026-05-06 09:20 | 47.25322 | 11.29186 | 4030 ft | 172 kts | 236° |
| 2026-05-06 09:20 | 47.24340 | 11.28098 | 4218 ft | 190 kts | 191° |
| 2026-05-06 09:20 | 47.22970 | 11.28247 | 4393 ft | 211 kts | 166° |
| 2026-05-06 09:21 | 47.21467 | 11.28816 | 4675 ft | 228 kts | 161° |
| 2026-05-06 09:21 | 47.20002 | 11.29515 | 5651 ft | 216 kts | 155° |
| 2026-05-06 09:21 | 47.18892 | 11.30855 | 6572 ft | 204 kts | 128° |
| 2026-05-06 09:21 | 47.18058 | 11.32509 | 7135 ft | 191 kts | 132° |
| 2026-05-06 09:22 | 47.17188 | 11.34158 | 7094 ft | 229 kts | 129° |
| 2026-05-06 09:22 | 47.16085 | 11.36046 | 7288 ft | 255 kts | 146° |
| 2026-05-06 09:22 | 47.14408 | 11.36877 | 7793 ft | 262 kts | 180° |
| 2026-05-06 09:22 | 47.12590 | 11.36548 | 8302 ft | 266 kts | 188° |
| 2026-05-06 09:23 | 47.10751 | 11.36122 | 9091 ft | 269 kts | 188° |
| 2026-05-06 09:23 | 47.08885 | 11.35687 | 9756 ft | 273 kts | 189° |
| 2026-05-06 09:23 | 47.06988 | 11.35244 | 10273 ft | 286 kts | 189° |
| 2026-05-06 09:23 | 47.04928 | 11.35094 | 10473 ft | 310 kts | 173° |
| 2026-05-06 09:24 | 47.02733 | 11.35602 | 10773 ft | 325 kts | 179° |
| 2026-05-06 09:24 | 47.00526 | 11.34925 | 11278 ft | 331 kts | 207° |
| 2026-05-06 09:24 | 46.98686 | 11.32890 | 11985 ft | 334 kts | 219° |
| 2026-05-06 09:24 | 46.96909 | 11.30696 | 12811 ft | 334 kts | 217° |
| 2026-05-06 09:25 | 46.95084 | 11.28596 | 13636 ft | 333 kts | 215° |
| 2026-05-06 09:25 | 46.93234 | 11.26561 | 14330 ft | 334 kts | 215° |
| 2026-05-06 09:25 | 46.91357 | 11.24542 | 15020 ft | 336 kts | 214° |
| 2026-05-06 09:25 | 46.89468 | 11.22521 | 15656 ft | 337 kts | 214° |
| 2026-05-06 09:26 | 46.87574 | 11.20486 | 16234 ft | 339 kts | 214° |
| 2026-05-06 09:26 | 46.85662 | 11.18423 | 16791 ft | 343 kts | 215° |
| 2026-05-06 09:26 | 46.83737 | 11.16335 | 17389 ft | 346 kts | 215° |
| 2026-05-06 09:26 | 46.81792 | 11.14217 | 17910 ft | 352 kts | 215° |
| 2026-05-06 09:27 | 46.79821 | 11.12069 | 18346 ft | 356 kts | 215° |
| 2026-05-06 09:27 | 46.77829 | 11.09897 | 18771 ft | 358 kts | 215° |
| 2026-05-06 09:27 | 46.75826 | 11.07713 | 19290 ft | 360 kts | 215° |
| 2026-05-06 09:27 | 46.73815 | 11.05523 | 19755 ft | 362 kts | 215° |
| 2026-05-06 09:28 | 46.71798 | 11.03333 | 19878 ft | 363 kts | 215° |
| 2026-05-06 09:28 | 46.69737 | 11.01103 | 19918 ft | 374 kts | 215° |
| 2026-05-06 09:28 | 46.67646 | 10.98842 | 19916 ft | 373 kts | 215° |
| 2026-05-06 09:28 | 46.65567 | 10.96592 | 19925 ft | 372 kts | 215° |
| 2026-05-06 09:29 | 46.63510 | 10.94323 | 19910 ft | 372 kts | 219° |
| 2026-05-06 09:29 | 46.61611 | 10.91746 | 19923 ft | 373 kts | 221° |
| 2026-05-06 09:29 | 46.59748 | 10.89127 | 19924 ft | 373 kts | 222° |
| 2026-05-06 09:29 | 46.57899 | 10.86491 | 19915 ft | 372 kts | 222° |
| 2026-05-06 09:30 | 46.56058 | 10.83858 | 19916 ft | 372 kts | 222° |
| 2026-05-06 09:30 | 46.54212 | 10.81220 | 19924 ft | 373 kts | 222° |
| 2026-05-06 09:30 | 46.52353 | 10.78580 | 19918 ft | 374 kts | 221° |
| 2026-05-06 09:30 | 46.50491 | 10.75953 | 19914 ft | 373 kts | 221° |
| 2026-05-06 09:31 | 46.48614 | 10.73316 | 19919 ft | 381 kts | 221° |
| 2026-05-06 09:31 | 46.46672 | 10.70593 | 19913 ft | 394 kts | 221° |
| 2026-05-06 09:31 | 46.44670 | 10.67789 | 19921 ft | 404 kts | 222° |
| 2026-05-06 09:31 | 46.42640 | 10.64942 | 19898 ft | 407 kts | 222° |
| 2026-05-06 09:32 | 46.40603 | 10.62079 | 19899 ft | 408 kts | 222° |
| 2026-05-06 09:32 | 46.38567 | 10.59215 | 19901 ft | 408 kts | 222° |
| 2026-05-06 09:32 | 46.36528 | 10.56349 | 19899 ft | 408 kts | 222° |
| 2026-05-06 09:32 | 46.34487 | 10.53494 | 19909 ft | 408 kts | 222° |
| 2026-05-06 09:33 | 46.32442 | 10.50643 | 19911 ft | 408 kts | 221° |
| 2026-05-06 09:33 | 46.30395 | 10.47790 | 19908 ft | 408 kts | 221° |
| 2026-05-06 09:33 | 46.28351 | 10.44943 | 19919 ft | 409 kts | 221° |
| 2026-05-06 09:33 | 46.26304 | 10.42094 | 19922 ft | 409 kts | 222° |
| 2026-05-06 09:34 | 46.24252 | 10.39244 | 19921 ft | 409 kts | 222° |
| 2026-05-06 09:34 | 46.22199 | 10.36392 | 19913 ft | 409 kts | 222° |
| 2026-05-06 09:34 | 46.20153 | 10.33549 | 19903 ft | 408 kts | 222° |
| 2026-05-06 09:34 | 46.18108 | 10.30714 | 19909 ft | 408 kts | 222° |
| 2026-05-06 09:35 | 46.16053 | 10.27873 | 19908 ft | 409 kts | 222° |
| 2026-05-06 09:35 | 46.14003 | 10.25039 | 19894 ft | 407 kts | 221° |
| 2026-05-06 09:35 | 46.11956 | 10.22210 | 19888 ft | 408 kts | 221° |
| 2026-05-06 09:35 | 46.09904 | 10.19380 | 19882 ft | 408 kts | 221° |
| 2026-05-06 09:36 | 46.07847 | 10.16548 | 19886 ft | 410 kts | 221° |
| 2026-05-06 09:36 | 46.05746 | 10.13788 | 19881 ft | 408 kts | 217° |
| 2026-05-06 09:36 | 46.03390 | 10.11517 | 19883 ft | 407 kts | 208° |
| 2026-05-06 09:36 | 46.00812 | 10.09863 | 19893 ft | 407 kts | 200° |
| 2026-05-06 09:37 | 45.98136 | 10.08513 | 19888 ft | 407 kts | 200° |
| 2026-05-06 09:37 | 45.95462 | 10.07158 | 19875 ft | 407 kts | 200° |
| 2026-05-06 09:37 | 45.92790 | 10.05799 | 19887 ft | 408 kts | 200° |
| 2026-05-06 09:37 | 45.90115 | 10.04434 | 19879 ft | 409 kts | 200° |
| 2026-05-06 09:38 | 45.87470 | 10.03082 | 19879 ft | 409 kts | 200° |
| 2026-05-06 09:38 | 45.84790 | 10.01716 | 19875 ft | 408 kts | 200° |
| 2026-05-06 09:38 | 45.82115 | 10.00355 | 19879 ft | 408 kts | 200° |
| 2026-05-06 09:38 | 45.79437 | 9.98998 | 19873 ft | 409 kts | 200° |
| 2026-05-06 09:39 | 45.76753 | 9.97640 | 19875 ft | 409 kts | 200° |
| 2026-05-06 09:39 | 45.74069 | 9.96281 | 19873 ft | 410 kts | 200° |
| 2026-05-06 09:39 | 45.71375 | 9.94916 | 19861 ft | 410 kts | 200° |
| 2026-05-06 09:39 | 45.68685 | 9.93555 | 19866 ft | 410 kts | 200° |
| 2026-05-06 09:40 | 45.65991 | 9.92194 | 19868 ft | 411 kts | 200° |
| 2026-05-06 09:40 | 45.63293 | 9.90835 | 19873 ft | 411 kts | 200° |
| 2026-05-06 09:40 | 45.57893 | 9.88115 | 19881 ft | 412 kts | 200° |
| 2026-05-06 09:41 | 45.55205 | 9.86767 | 19890 ft | 412 kts | 200° |
| 2026-05-06 09:41 | 45.52498 | 9.85413 | 19889 ft | 412 kts | 200° |
| 2026-05-06 09:41 | 45.49795 | 9.84058 | 19892 ft | 412 kts | 200° |
| 2026-05-06 09:41 | 45.47091 | 9.82701 | 19897 ft | 412 kts | 200° |
| 2026-05-06 09:42 | 45.44387 | 9.81345 | 19901 ft | 413 kts | 200° |
| 2026-05-06 09:42 | 45.41679 | 9.79990 | 19871 ft | 412 kts | 200° |
| 2026-05-06 09:42 | 45.38984 | 9.78640 | 19620 ft | 410 kts | 200° |
| 2026-05-06 09:42 | 45.36301 | 9.77295 | 19370 ft | 409 kts | 200° |
| 2026-05-06 09:43 | 45.33620 | 9.75953 | 19104 ft | 407 kts | 200° |
| 2026-05-06 09:43 | 45.30952 | 9.74623 | 18851 ft | 406 kts | 200° |
| 2026-05-06 09:43 | 45.28289 | 9.73299 | 18602 ft | 405 kts | 200° |
| 2026-05-06 09:43 | 45.25625 | 9.71977 | 18350 ft | 404 kts | 200° |
| 2026-05-06 09:44 | 45.22976 | 9.70661 | 18085 ft | 403 kts | 200° |
| 2026-05-06 09:44 | 45.20328 | 9.69348 | 17812 ft | 402 kts | 200° |
| 2026-05-06 09:44 | 45.17691 | 9.68037 | 17542 ft | 401 kts | 200° |
| 2026-05-06 09:44 | 45.15060 | 9.66730 | 17271 ft | 400 kts | 200° |
| 2026-05-06 09:45 | 45.12435 | 9.65431 | 17005 ft | 400 kts | 200° |
| 2026-05-06 09:45 | 45.09814 | 9.64140 | 16744 ft | 398 kts | 200° |
| 2026-05-06 09:45 | 45.07199 | 9.62854 | 16485 ft | 397 kts | 200° |
| 2026-05-06 09:45 | 45.04598 | 9.61574 | 16220 ft | 396 kts | 200° |
| 2026-05-06 09:46 | 45.02843 | 9.60712 | 16052 ft | 395 kts | 200° |
| 2026-05-06 09:46 | 45.00254 | 9.59436 | 15822 ft | 393 kts | 200° |
| 2026-05-06 09:46 | 44.97676 | 9.58166 | 15567 ft | 392 kts | 200° |
| 2026-05-06 09:46 | 44.95104 | 9.56901 | 15318 ft | 391 kts | 200° |
| 2026-05-06 09:47 | 44.92539 | 9.55645 | 15070 ft | 390 kts | 200° |
| 2026-05-06 09:47 | 44.89985 | 9.54393 | 14825 ft | 388 kts | 200° |
| 2026-05-06 09:47 | 44.87474 | 9.53161 | 14584 ft | 387 kts | 200° |
| 2026-05-06 09:47 | 44.84939 | 9.51920 | 14337 ft | 385 kts | 200° |
| 2026-05-06 09:48 | 44.82407 | 9.50679 | 14095 ft | 384 kts | 200° |
| 2026-05-06 09:48 | 44.79929 | 9.49463 | 13766 ft | 366 kts | 200° |
| 2026-05-06 09:48 | 44.77576 | 9.48311 | 13183 ft | 354 kts | 200° |
| 2026-05-06 09:48 | 44.75248 | 9.47177 | 12657 ft | 353 kts | 200° |
| 2026-05-06 09:49 | 44.72936 | 9.46054 | 12118 ft | 350 kts | 200° |
| 2026-05-06 09:49 | 44.70639 | 9.44937 | 11586 ft | 348 kts | 200° |
| 2026-05-06 09:49 | 44.68377 | 9.43837 | 11312 ft | 337 kts | 200° |
| 2026-05-06 09:49 | 44.66205 | 9.42784 | 11186 ft | 322 kts | 200° |
| 2026-05-06 09:50 | 44.64130 | 9.41776 | 11060 ft | 309 kts | 201° |
| 2026-05-06 09:50 | 44.62134 | 9.40806 | 10937 ft | 298 kts | 200° |
| 2026-05-06 09:50 | 44.60223 | 9.39877 | 10801 ft | 280 kts | 200° |
| 2026-05-06 09:50 | 44.58434 | 9.39009 | 10400 ft | 266 kts | 200° |
| 2026-05-06 09:51 | 44.56712 | 9.38175 | 10140 ft | 261 kts | 200° |
| 2026-05-06 09:51 | 44.54994 | 9.37344 | 9931 ft | 260 kts | 200° |
| 2026-05-06 09:51 | 44.53284 | 9.36516 | 9808 ft | 260 kts | 200° |
| 2026-05-06 09:51 | 44.51574 | 9.35688 | 9676 ft | 260 kts | 200° |
| 2026-05-06 09:52 | 44.49868 | 9.34860 | 9548 ft | 259 kts | 200° |
| 2026-05-06 09:52 | 44.48170 | 9.34037 | 9413 ft | 258 kts | 200° |
| 2026-05-06 09:52 | 44.46468 | 9.33215 | 9286 ft | 259 kts | 200° |
| 2026-05-06 09:52 | 44.44763 | 9.32395 | 9121 ft | 260 kts | 200° |
| 2026-05-06 09:53 | 44.43044 | 9.31567 | 8666 ft | 261 kts | 200° |
| 2026-05-06 09:53 | 44.41333 | 9.30743 | 8231 ft | 262 kts | 200° |
| 2026-05-06 09:53 | 44.39614 | 9.29918 | 7907 ft | 260 kts | 200° |
| 2026-05-06 09:53 | 44.37916 | 9.29105 | 7515 ft | 255 kts | 200° |
| 2026-05-06 09:54 | 44.36243 | 9.28301 | 6957 ft | 250 kts | 200° |
| 2026-05-06 09:54 | 44.34678 | 9.27391 | 6453 ft | 243 kts | 213° |
| 2026-05-06 09:54 | 44.33533 | 9.25742 | 6037 ft | 238 kts | 237° |
| 2026-05-06 09:54 | 44.33007 | 9.23614 | 5756 ft | 230 kts | 260° |
| 2026-05-06 09:55 | 44.33143 | 9.21396 | 5447 ft | 232 kts | 281° |
| 2026-05-06 09:55 | 44.33635 | 9.19245 | 5144 ft | 232 kts | 283° |
| 2026-05-06 09:55 | 44.34126 | 9.17108 | 4820 ft | 230 kts | 282° |
| 2026-05-06 09:55 | 44.34596 | 9.14973 | 4497 ft | 230 kts | 282° |
| 2026-05-06 09:56 | 44.35061 | 9.12834 | 4164 ft | 231 kts | 282° |
| 2026-05-06 09:56 | 44.35521 | 9.10722 | 3831 ft | 223 kts | 282° |
| 2026-05-06 09:56 | 44.35963 | 9.08696 | 3546 ft | 214 kts | 281° |
| 2026-05-06 09:56 | 44.36385 | 9.06754 | 3274 ft | 202 kts | 279° |
| 2026-05-06 09:57 | 44.36782 | 9.04926 | 2974 ft | 191 kts | 279° |
| 2026-05-06 09:57 | 44.37204 | 9.03206 | 2670 ft | 185 kts | 285° |
| 2026-05-06 09:57 | 44.37710 | 9.01565 | 2311 ft | 182 kts | 287° |
| 2026-05-06 09:57 | 44.38149 | 9.00013 | 2153 ft | 163 kts | 280° |
| 2026-05-06 09:58 | 44.38451 | 8.98545 | 1942 ft | 150 kts | 275° |
| 2026-05-06 09:58 | 44.38657 | 8.97141 | 1784 ft | 145 kts | 271° |
| 2026-05-06 09:58 | 44.38804 | 8.95765 | 1655 ft | 146 kts | 274° |
| 2026-05-06 09:58 | 44.38976 | 8.94335 | 1503 ft | 148 kts | 278° |
| 2026-05-06 09:59 | 44.39263 | 8.92956 | 1344 ft | 149 kts | 292° |
| 2026-05-06 09:59 | 44.39638 | 8.91613 | 1037 ft | 147 kts | 287° |
| 2026-05-06 09:59 | 44.39948 | 8.90260 | 773 ft | 145 kts | 287° |
| 2026-05-06 09:59 | 44.40249 | 8.88908 | 581 ft | 145 kts | 283° |
| 2026-05-06 10:00 | 44.40523 | 8.87542 | 377 ft | 146 kts | 282° |
| 2026-05-06 10:00 | 44.40795 | 8.86188 | 116 ft | 144 kts | 282° |
| 2026-05-06 10:00 | 44.41058 | 8.84865 | 21 ft | 133 kts | 283° |
| 2026-05-06 10:00 | 44.41262 | 8.83836 | 20 ft | 85 kts | 285° |
| 2026-05-06 10:01 | 44.41371 | 8.83266 | 24 ft | 36 kts | 284° |
| 2026-05-06 10:01 | 44.41427 | 8.83144 | 23 ft | 11 kts | 319° |
| 2026-05-06 10:01 | 44.41478 | 8.83094 | 24 ft | 8 kts | 339° |
| 2026-05-06 10:01 | 44.41542 | 8.83146 | 30 ft | 13 kts | 73° |
| 2026-05-06 10:02 | 44.41532 | 8.83260 | 25 ft | 12 kts | 103° |
| 2026-05-06 10:02 | 44.41511 | 8.83381 | 24 ft | 14 kts | 103° |
| 2026-05-06 10:02 | 44.41481 | 8.83525 | 23 ft | 16 kts | 106° |
| 2026-05-06 10:02 | 44.41447 | 8.83688 | 20 ft | 19 kts | 106° |
| 2026-05-06 10:03 | 44.41407 | 8.83877 | 20 ft | 21 kts | 107° |
| 2026-05-06 10:03 | 44.41369 | 8.84081 | 19 ft | 23 kts | 103° |
| 2026-05-06 10:03 | 44.41327 | 8.84299 | 20 ft | 18 kts | 105° |
| 2026-05-06 10:03 | 44.41342 | 8.84461 | 18 ft | 18 kts | 52° |
| 2026-05-06 10:04 | 44.41412 | 8.84590 | 18 ft | 15 kts | 60° |
| 2026-05-06 10:04 | 44.41396 | 8.84723 | 19 ft | 15 kts | 107° |
| 2026-05-06 10:04 | 44.41369 | 8.84857 | 19 ft | 0 kts | 105° |
| 2026-05-06 10:05 | 44.41345 | 8.84879 | 18 ft | 8 kts | 173° |
| 2026-05-06 10:05 | 44.41292 | 8.84861 | 18 ft | 0 kts | 195° |